createdAt,value
2019-03-27T00:00:16.984Z,7.90
2019-03-27T00:02:47.236Z,7.80
2019-03-27T00:05:16.494Z,7.80
2019-03-27T00:07:45.754Z,7.80
2019-03-27T00:10:15.267Z,7.70
2019-03-27T00:12:44.850Z,7.70
2019-03-27T00:15:14.399Z,7.60
2019-03-27T00:17:43.976Z,7.50
2019-03-27T00:20:13.585Z,7.50
2019-03-27T00:22:42.852Z,7.40
2019-03-27T00:25:12.182Z,7.40
2019-03-27T00:27:41.472Z,7.30
2019-03-27T00:30:12.543Z,7.20
2019-03-27T00:32:41.794Z,7.10
2019-03-27T00:35:11.126Z,7.10
2019-03-27T00:37:40.407Z,7.10
2019-03-27T00:40:10.202Z,7.00
2019-03-27T00:42:39.743Z,7.00
2019-03-27T00:45:09.756Z,6.90
2019-03-27T00:47:39.026Z,6.90
2019-03-27T00:50:09.626Z,6.80
2019-03-27T00:52:38.903Z,6.80
2019-03-27T00:55:09.117Z,6.80
2019-03-27T00:57:38.547Z,6.80
2019-03-27T01:00:13.607Z,6.70
2019-03-27T04:03:03.507Z,4.00
2019-03-27T04:05:32.786Z,4.00
2019-03-27T04:08:02.061Z,3.90
2019-03-27T04:10:31.310Z,3.90
2019-03-27T04:13:00.587Z,3.80
2019-03-27T04:15:29.857Z,3.70
2019-03-27T04:17:59.135Z,3.70
2019-03-27T04:20:28.392Z,3.80
2019-03-27T04:22:57.671Z,3.70
2019-03-27T04:25:27.196Z,3.80
2019-03-27T04:27:56.803Z,3.70
2019-03-27T04:30:26.075Z,3.60
2019-03-27T04:32:55.612Z,3.60
2019-03-27T04:35:24.880Z,3.50
2019-03-27T04:37:55.119Z,3.40
2019-03-27T04:40:24.383Z,3.30
2019-03-27T04:42:53.675Z,3.30
2019-03-27T04:45:22.934Z,3.20
2019-03-27T04:47:52.207Z,3.20
2019-03-27T04:50:21.747Z,3.30
2019-03-27T04:52:51.025Z,3.20
2019-03-27T04:55:21.363Z,3.10
2019-03-27T04:57:50.882Z,3.10
2019-03-27T05:00:20.491Z,3.10
2019-03-27T05:02:50.828Z,3.10
2019-03-27T05:05:20.104Z,3.10
2019-03-27T05:07:49.364Z,3.10
2019-03-27T05:10:18.654Z,3.10
2019-03-27T05:12:47.918Z,3.20
2019-03-27T05:15:17.186Z,3.30
2019-03-27T05:17:46.773Z,3.20
2019-03-27T05:20:16.070Z,3.20
2019-03-27T05:22:45.342Z,3.30
2019-03-27T05:25:14.610Z,3.30
2019-03-27T05:27:43.875Z,3.20
2019-03-27T05:30:14.850Z,3.20
2019-03-27T05:32:44.129Z,3.20
2019-03-27T05:35:13.386Z,3.20
2019-03-27T05:37:42.654Z,3.20
2019-03-27T05:40:11.930Z,3.30
2019-03-27T05:42:41.206Z,3.30
2019-03-27T05:45:10.643Z,3.30
2019-03-27T05:47:40.190Z,3.30
2019-03-27T05:50:10.015Z,3.30
2019-03-27T05:52:39.290Z,3.40
2019-03-27T05:55:08.625Z,3.40
2019-03-27T05:57:37.910Z,3.40
2019-03-27T06:00:07.410Z,3.40
2019-03-27T06:02:36.678Z,3.40
2019-03-27T06:05:06.586Z,3.40
2019-03-27T06:07:35.851Z,3.40
2019-03-27T06:10:06.258Z,3.50
2019-03-27T06:12:35.538Z,3.60
2019-03-27T06:15:06.648Z,3.70
2019-03-27T06:17:35.930Z,3.80
2019-03-27T06:20:06.848Z,3.90
2019-03-27T06:22:36.115Z,4.00
2019-03-27T06:25:07.093Z,4.00
2019-03-27T06:27:37.329Z,4.10
2019-03-27T06:30:07.234Z,4.10
2019-03-27T06:32:36.676Z,4.30
2019-03-27T06:35:08.566Z,4.40
2019-03-27T06:37:37.838Z,4.50
2019-03-27T06:40:07.645Z,4.50
2019-03-27T06:42:36.946Z,4.60
2019-03-27T06:45:07.832Z,4.70
2019-03-27T06:47:37.098Z,4.80
2019-03-27T06:50:06.990Z,4.90
2019-03-27T06:52:36.477Z,5.00
2019-03-27T06:55:07.196Z,5.10
2019-03-27T06:57:36.462Z,5.20
2019-03-27T07:00:10.698Z,5.30
2019-03-27T07:02:39.960Z,5.40
2019-03-27T07:05:09.958Z,5.50
2019-03-27T07:07:39.231Z,5.50
2019-03-27T07:10:09.727Z,5.70
2019-03-27T07:12:38.990Z,5.70
2019-03-27T07:15:08.759Z,5.80
2019-03-27T07:17:38.026Z,5.90
2019-03-27T07:20:08.040Z,6.00
2019-03-27T07:22:37.312Z,6.10
2019-03-27T07:25:07.631Z,6.20
2019-03-27T07:27:36.895Z,6.40
2019-03-27T07:30:07.507Z,6.40
2019-03-27T07:32:36.771Z,6.50
2019-03-27T07:35:06.577Z,6.60
2019-03-27T07:37:36.297Z,6.70
2019-03-27T07:40:07.299Z,6.80
2019-03-27T07:42:36.572Z,6.90
2019-03-27T07:45:07.174Z,7.10
2019-03-27T07:47:36.439Z,7.20
2019-03-27T07:50:07.142Z,7.30
2019-03-27T07:52:36.714Z,7.50
2019-03-27T07:55:18.787Z,7.60
2019-03-27T07:57:37.790Z,7.70
2019-03-27T08:00:13.326Z,7.90
2019-03-27T08:02:42.591Z,8.00
2019-03-27T08:05:12.948Z,8.10
2019-03-27T08:07:42.287Z,8.10
2019-03-27T08:10:11.619Z,8.20
2019-03-27T08:12:40.895Z,8.30
2019-03-27T08:15:10.605Z,8.30
2019-03-27T08:17:39.863Z,8.40
2019-03-27T08:20:09.775Z,8.40
2019-03-27T08:22:39.036Z,8.50
2019-03-27T08:25:09.062Z,8.50
2019-03-27T08:27:39.502Z,8.60
2019-03-27T08:30:13.898Z,8.60
2019-03-27T08:32:43.166Z,8.60
2019-03-27T08:35:12.670Z,8.60
2019-03-27T08:37:41.955Z,8.70
2019-03-27T08:40:11.830Z,8.60
2019-03-27T08:42:41.384Z,8.70
2019-03-27T08:45:11.486Z,8.80
2019-03-27T08:47:40.762Z,8.90
2019-03-27T08:50:12.066Z,9.00
2019-03-27T08:52:41.338Z,9.30
2019-03-27T08:55:13.557Z,9.50
2019-03-27T08:57:41.818Z,9.60
2019-03-27T09:00:14.170Z,9.70
2019-03-27T09:02:43.440Z,9.80
2019-03-27T09:05:12.838Z,9.80
2019-03-27T09:07:42.107Z,10.00
2019-03-27T09:10:12.018Z,9.90
2019-03-27T09:12:41.292Z,10.00
2019-03-27T09:15:10.839Z,10.10
2019-03-27T09:17:40.110Z,10.30
2019-03-27T09:20:09.831Z,10.40
2019-03-27T09:22:39.099Z,10.70
2019-03-27T09:25:08.716Z,10.80
2019-03-27T09:27:37.986Z,10.80
2019-03-27T09:30:10.660Z,10.80
2019-03-27T09:32:40.010Z,11.10
2019-03-27T09:35:09.940Z,11.30
2019-03-27T09:37:39.231Z,11.40
2019-03-27T09:40:08.934Z,11.50
2019-03-27T09:42:38.206Z,11.40
2019-03-27T09:45:09.387Z,11.40
2019-03-27T09:47:38.664Z,11.40
2019-03-27T09:50:08.679Z,11.10
2019-03-27T09:52:37.953Z,11.10
2019-03-27T09:55:07.218Z,11.20
2019-03-27T09:57:36.493Z,11.30
2019-03-27T10:00:08.139Z,11.60
2019-03-27T10:02:37.415Z,11.70
2019-03-27T10:05:07.924Z,11.70
2019-03-27T10:07:38.165Z,11.70
2019-03-27T10:10:07.785Z,11.60
2019-03-27T10:12:37.048Z,11.70
2019-03-27T10:15:09.188Z,12.00
2019-03-27T10:17:38.706Z,12.40
2019-03-27T10:20:08.219Z,12.90
2019-03-27T10:22:37.493Z,13.30
2019-03-27T10:25:08.686Z,13.40
2019-03-27T10:27:37.950Z,13.30
2019-03-27T10:30:07.858Z,13.40
2019-03-27T10:32:37.122Z,13.30
2019-03-27T10:35:07.923Z,13.20
2019-03-27T10:37:37.524Z,13.00
2019-03-27T10:40:08.130Z,13.00
2019-03-27T10:42:37.466Z,13.00
2019-03-27T10:45:07.182Z,13.00
2019-03-27T10:47:36.446Z,12.90
2019-03-27T10:50:17.467Z,12.90
2019-03-27T10:52:38.378Z,12.90
2019-03-27T10:55:08.578Z,12.80
2019-03-27T10:57:37.859Z,12.70
2019-03-27T11:00:11.284Z,12.70
2019-03-27T11:02:40.816Z,12.70
2019-03-27T11:05:10.695Z,12.90
2019-03-27T11:07:39.958Z,13.00
2019-03-27T11:10:10.386Z,12.70
2019-03-27T11:12:39.646Z,12.50
2019-03-27T11:15:11.054Z,12.70
2019-03-27T11:17:40.310Z,12.80
2019-03-27T11:20:10.218Z,13.10
2019-03-27T11:22:39.552Z,13.20
2019-03-27T11:25:09.650Z,13.30
2019-03-27T11:27:38.931Z,13.40
2019-03-27T11:30:09.735Z,13.40
2019-03-27T11:32:39.162Z,13.50
2019-03-27T11:35:08.701Z,13.50
2019-03-27T11:37:38.274Z,13.50
2019-03-27T11:40:07.978Z,13.60
2019-03-27T11:42:37.239Z,13.80
2019-03-27T11:45:08.347Z,14.10
2019-03-27T11:47:37.617Z,14.10
2019-03-27T11:50:09.384Z,13.90
2019-03-27T11:52:38.669Z,13.70
2019-03-27T11:55:08.187Z,13.60
2019-03-27T11:57:37.447Z,13.40
2019-03-27T12:00:09.586Z,13.40
2019-03-27T12:02:40.271Z,13.40
2019-03-27T12:05:10.215Z,13.20
2019-03-27T12:07:39.529Z,13.10
2019-03-27T12:10:09.462Z,13.10
2019-03-27T12:12:38.734Z,13.10
2019-03-27T12:15:09.534Z,13.10
2019-03-27T12:17:38.810Z,13.10
2019-03-27T12:20:08.070Z,13.30
2019-03-27T12:22:38.416Z,13.60
2019-03-27T12:25:08.110Z,14.00
2019-03-27T12:27:37.722Z,14.00
2019-03-27T12:30:08.029Z,14.30
2019-03-27T12:32:37.304Z,14.40
2019-03-27T12:35:06.733Z,14.40
2019-03-27T12:37:36.002Z,14.60
2019-03-27T12:40:11.401Z,14.70
2019-03-27T12:42:37.209Z,14.40
2019-03-27T12:45:07.599Z,14.20
2019-03-27T12:47:36.874Z,14.10
2019-03-27T12:50:07.382Z,13.90
2019-03-27T12:52:36.802Z,13.80
2019-03-27T12:55:07.082Z,13.70
2019-03-27T12:57:36.351Z,13.60
2019-03-27T13:00:08.680Z,13.60
2019-03-27T13:02:37.946Z,13.80
2019-03-27T13:05:07.951Z,13.90
2019-03-27T13:07:49.379Z,13.90
2019-03-27T13:10:08.521Z,14.00
2019-03-27T13:12:37.783Z,14.10
2019-03-27T13:15:07.970Z,14.10
2019-03-27T13:17:37.245Z,14.30
2019-03-27T13:20:07.858Z,14.90
2019-03-27T13:22:38.350Z,15.40
2019-03-27T13:25:09.302Z,15.80
2019-03-27T13:27:39.410Z,16.00
2019-03-27T13:30:09.910Z,16.00
2019-03-27T13:32:39.178Z,16.00
2019-03-27T13:35:08.787Z,16.10
2019-03-27T13:37:38.046Z,16.20
2019-03-27T13:40:10.600Z,16.30
2019-03-27T13:42:39.870Z,16.20
2019-03-27T13:45:10.678Z,15.90
2019-03-27T13:47:39.962Z,15.50
2019-03-27T13:50:13.140Z,15.30
2019-03-27T13:52:42.741Z,15.20
2019-03-27T13:55:12.238Z,15.20
2019-03-27T13:57:41.878Z,15.60
2019-03-27T14:00:14.348Z,15.40
2019-03-27T14:02:43.951Z,15.50
2019-03-27T14:05:15.005Z,15.70
2019-03-27T14:07:44.270Z,16.00
2019-03-27T14:10:14.270Z,16.00
2019-03-27T14:12:43.542Z,15.90
2019-03-27T14:15:13.450Z,15.90
2019-03-27T14:17:42.730Z,15.60
2019-03-27T14:20:12.642Z,15.60
2019-03-27T14:22:42.080Z,15.70
2019-03-27T14:25:11.662Z,16.00
2019-03-27T14:27:40.923Z,16.10
2019-03-27T14:30:13.438Z,15.90
2019-03-27T14:32:42.949Z,16.10
2019-03-27T14:35:12.693Z,15.90
2019-03-27T14:37:41.954Z,16.10
2019-03-27T14:40:11.559Z,16.40
2019-03-27T14:42:40.826Z,16.10
2019-03-27T14:45:10.440Z,16.60
2019-03-27T14:47:39.711Z,17.10
2019-03-27T14:50:09.412Z,17.20
2019-03-27T14:52:38.755Z,16.90
2019-03-27T14:55:08.558Z,16.80
2019-03-27T14:57:38.472Z,16.80
2019-03-27T15:00:10.156Z,16.80
2019-03-27T15:02:40.464Z,17.00
2019-03-27T15:05:10.177Z,16.90
2019-03-27T15:07:39.448Z,16.90
2019-03-27T15:10:09.454Z,17.10
2019-03-27T15:12:40.275Z,17.60
2019-03-27T15:15:13.595Z,18.00
2019-03-27T15:17:42.895Z,18.40
2019-03-27T15:20:12.654Z,18.20
2019-03-27T15:22:42.002Z,18.10
2019-03-27T15:25:11.270Z,18.00
2019-03-27T15:27:41.610Z,17.40
2019-03-27T15:30:13.296Z,17.00
2019-03-27T15:32:43.675Z,16.80
2019-03-27T15:35:13.106Z,17.00
2019-03-27T15:37:42.367Z,17.00
2019-03-27T15:40:12.370Z,17.00
2019-03-27T15:42:41.653Z,16.70
2019-03-27T15:45:13.131Z,16.40
2019-03-27T15:47:42.398Z,16.30
2019-03-27T15:50:11.798Z,16.20
2019-03-27T15:52:41.390Z,16.10
2019-03-27T15:55:10.903Z,15.80
2019-03-27T15:57:40.607Z,15.40
2019-03-27T16:00:10.187Z,15.40
2019-03-27T16:02:40.630Z,15.40
2019-03-27T16:05:10.130Z,15.30
2019-03-27T16:07:39.408Z,15.20
2019-03-27T16:10:08.739Z,14.90
2019-03-27T16:12:38.020Z,14.70
2019-03-27T16:15:11.107Z,14.50
2019-03-27T16:17:40.378Z,14.40
2019-03-27T16:20:11.006Z,14.20
2019-03-27T16:22:50.453Z,14.00
2019-03-27T16:25:11.478Z,13.90
2019-03-27T16:27:40.758Z,13.80
2019-03-27T16:30:11.497Z,13.80
2019-03-27T16:32:41.826Z,13.60
2019-03-27T16:35:11.440Z,13.50
2019-03-27T16:37:40.706Z,13.40
2019-03-27T16:40:10.521Z,13.40
2019-03-27T16:42:39.855Z,13.40
2019-03-27T16:45:09.962Z,13.20
2019-03-27T16:47:39.290Z,13.10
2019-03-27T16:50:09.398Z,13.10
2019-03-27T16:52:38.671Z,13.00
2019-03-27T16:55:08.478Z,12.90
2019-03-27T16:57:37.747Z,12.90
2019-03-27T17:00:08.955Z,12.90
2019-03-27T17:02:38.280Z,12.90
2019-03-27T17:05:07.790Z,12.90
2019-03-27T17:07:37.065Z,12.90
2019-03-27T17:10:07.956Z,12.80
2019-03-27T17:12:37.395Z,12.70
2019-03-27T17:15:07.532Z,12.70
2019-03-27T17:17:36.778Z,12.80
2019-03-27T17:20:10.719Z,12.70
2019-03-27T17:22:39.999Z,12.60
2019-03-27T17:25:10.299Z,12.50
2019-03-27T17:27:40.547Z,12.40
2019-03-27T17:30:11.226Z,12.30
2019-03-27T17:32:40.491Z,12.20
2019-03-27T17:35:10.099Z,12.20
2019-03-27T17:37:39.363Z,12.00
2019-03-27T17:40:08.909Z,12.00
2019-03-27T17:42:38.171Z,11.80
2019-03-27T17:45:08.074Z,11.70
2019-03-27T17:47:37.370Z,11.60
2019-03-27T17:50:07.070Z,11.60
2019-03-27T17:52:38.154Z,11.50
2019-03-27T17:55:08.136Z,11.40
2019-03-27T17:57:37.414Z,11.30
2019-03-27T18:00:08.850Z,11.20
2019-03-27T18:02:38.300Z,11.10
2019-03-27T18:05:08.067Z,11.00
2019-03-27T18:07:37.347Z,10.90
2019-03-27T18:10:07.946Z,10.80
2019-03-27T18:12:37.394Z,10.70
2019-03-27T18:15:07.710Z,10.70
2019-03-27T18:17:37.042Z,10.70
2019-03-27T18:20:06.662Z,10.60
2019-03-27T18:22:35.931Z,10.50
2019-03-27T18:25:07.053Z,10.40
2019-03-27T18:27:36.613Z,10.40
2019-03-27T18:30:07.815Z,10.30
2019-03-27T18:32:37.270Z,10.20
2019-03-27T18:35:07.157Z,10.10
2019-03-27T18:37:37.909Z,10.00
2019-03-27T18:40:07.610Z,9.80
2019-03-27T18:42:36.874Z,9.70
2019-03-27T18:45:07.852Z,9.50
2019-03-27T18:47:37.102Z,9.50
2019-03-27T18:50:08.874Z,9.50
2019-03-27T18:52:38.146Z,9.40
2019-03-27T18:55:07.496Z,9.30
2019-03-27T18:57:37.127Z,9.10
2019-03-27T19:00:10.210Z,9.00
2019-03-27T19:02:39.711Z,8.90
2019-03-27T19:05:10.104Z,8.90
2019-03-27T19:07:39.372Z,8.90
2019-03-27T19:10:08.978Z,8.80
2019-03-27T19:12:38.255Z,8.80
2019-03-27T19:15:19.415Z,8.80
2019-03-27T19:17:48.689Z,8.80
2019-03-27T19:20:18.034Z,8.70
2019-03-27T19:22:47.305Z,8.70
2019-03-27T19:25:16.639Z,8.60
2019-03-27T19:27:46.151Z,8.40
2019-03-27T19:30:15.755Z,8.30
2019-03-27T19:32:45.030Z,8.20
2019-03-27T19:35:14.366Z,8.20
2019-03-27T19:37:43.870Z,8.20
2019-03-27T19:40:13.567Z,8.20
2019-03-27T19:42:42.850Z,8.10
2019-03-27T19:45:12.631Z,8.10
2019-03-27T19:47:42.310Z,8.10
2019-03-27T19:50:12.023Z,7.90
2019-03-27T19:52:41.288Z,7.80
2019-03-27T19:55:10.643Z,7.70
2019-03-27T19:57:39.918Z,7.60
2019-03-27T20:00:11.248Z,7.60
2019-03-27T20:02:40.842Z,7.50
2019-03-27T20:05:10.951Z,7.50
2019-03-27T20:07:40.233Z,7.40
2019-03-27T20:10:09.737Z,7.40
2019-03-27T20:12:40.115Z,7.30
2019-03-27T20:15:12.065Z,7.30
2019-03-27T20:17:41.101Z,7.20
2019-03-27T20:20:11.520Z,7.10
2019-03-27T20:22:40.800Z,7.00
2019-03-27T20:25:10.902Z,7.00
2019-03-27T20:27:40.250Z,6.90
2019-03-27T20:30:15.312Z,6.90
2019-03-27T20:32:44.658Z,6.90
2019-03-27T20:35:14.314Z,6.80
2019-03-27T20:37:44.962Z,6.80
2019-03-27T20:40:16.034Z,6.80
2019-03-27T20:42:45.791Z,6.80
2019-03-27T20:45:15.468Z,6.70
2019-03-27T20:47:44.742Z,6.70
2019-03-27T20:50:14.422Z,6.60
2019-03-27T20:52:43.699Z,6.60
2019-03-27T20:55:13.316Z,6.50
2019-03-27T20:57:42.753Z,6.50
2019-03-27T21:00:13.231Z,6.50
2019-03-27T21:02:44.272Z,6.40
2019-03-27T21:05:13.624Z,6.40
2019-03-27T21:07:42.896Z,6.30
2019-03-27T21:10:12.687Z,6.20
2019-03-27T21:12:41.970Z,6.20
2019-03-27T21:15:11.769Z,6.20
2019-03-27T21:17:41.052Z,6.20
2019-03-27T21:20:10.882Z,6.20
2019-03-27T21:22:40.231Z,6.20
2019-03-27T21:25:10.308Z,6.20
2019-03-27T21:27:39.706Z,6.20
2019-03-27T21:30:10.510Z,6.20
2019-03-27T21:32:39.789Z,6.20
2019-03-27T21:35:09.290Z,6.20
2019-03-27T21:37:38.635Z,6.20
2019-03-27T21:40:09.732Z,6.20
2019-03-27T21:42:39.000Z,6.10
2019-03-27T21:45:09.280Z,6.00
2019-03-27T21:47:38.549Z,5.90
2019-03-27T21:50:08.530Z,5.90
2019-03-27T21:52:37.791Z,5.80
2019-03-27T21:55:16.838Z,5.70
2019-03-27T21:57:38.561Z,5.60
2019-03-27T22:00:09.505Z,5.60
2019-03-27T22:02:38.990Z,5.60
2019-03-27T22:05:08.251Z,5.60
2019-03-27T22:07:37.522Z,5.50
2019-03-27T22:10:08.014Z,5.50
2019-03-27T22:12:38.487Z,5.50
2019-03-27T22:15:09.694Z,5.40
2019-03-27T22:17:39.219Z,5.40
2019-03-27T22:20:09.019Z,5.40
2019-03-27T22:22:38.286Z,5.40
2019-03-27T22:25:07.987Z,5.40
2019-03-27T22:27:37.250Z,5.30
2019-03-27T22:30:07.559Z,5.20
2019-03-27T22:32:36.826Z,5.20
2019-03-27T22:35:09.338Z,5.20
2019-03-27T22:37:38.602Z,5.20
2019-03-27T22:40:08.215Z,5.20
2019-03-27T22:42:37.475Z,5.20
2019-03-27T22:45:07.414Z,5.20
2019-03-27T22:47:36.678Z,5.10
2019-03-27T22:50:08.128Z,5.10
2019-03-27T22:52:38.034Z,5.00
2019-03-27T22:55:08.474Z,5.00
2019-03-27T22:57:37.734Z,5.00
2019-03-27T23:00:09.430Z,5.00
2019-03-27T23:02:40.314Z,5.00
2019-03-27T23:05:10.133Z,5.00
2019-03-27T23:07:39.478Z,5.00
2019-03-27T23:10:08.983Z,5.00
2019-03-27T23:12:38.266Z,5.00
2019-03-27T23:15:09.773Z,5.10
2019-03-27T23:17:39.038Z,5.10
2019-03-27T23:20:08.676Z,5.10
2019-03-27T23:22:39.033Z,5.10
2019-03-27T23:25:08.730Z,5.10
2019-03-27T23:27:38.305Z,5.10
2019-03-27T23:30:09.031Z,5.00
2019-03-27T23:32:38.290Z,5.00
2019-03-27T23:35:08.493Z,5.00
2019-03-27T23:37:38.834Z,5.00
2019-03-27T23:40:08.270Z,5.00
2019-03-27T23:42:38.611Z,5.00
2019-03-27T23:45:08.311Z,4.90
2019-03-27T23:47:37.838Z,4.70
2019-03-27T23:50:08.846Z,4.60
2019-03-27T23:52:38.384Z,4.50
2019-03-27T23:55:07.886Z,4.40
2019-03-27T23:57:37.536Z,4.30
